createdAt,value
2018-09-29T00:02:27.493Z,52.82
2018-09-29T00:04:56.074Z,52.92
2018-09-29T00:07:24.660Z,52.19
2018-09-29T00:09:53.190Z,51.48
2018-09-29T00:12:21.766Z,52.01
2018-09-29T00:14:50.290Z,51.30
2018-09-29T00:17:18.885Z,51.42
2018-09-29T00:19:47.457Z,51.80
2018-09-29T00:22:16.028Z,51.82
2018-09-29T00:24:44.560Z,51.59
2018-09-29T00:27:13.135Z,51.80
2018-09-29T00:29:41.678Z,52.51
2018-09-29T00:32:10.271Z,52.54
2018-09-29T00:34:38.812Z,52.54
2018-09-29T00:37:07.419Z,52.29
2018-09-29T00:39:35.970Z,52.05
2018-09-29T00:42:04.543Z,52.48
2018-09-29T00:44:33.090Z,51.85
2018-09-29T00:47:01.678Z,51.90
2018-09-29T00:49:30.222Z,52.08
2018-09-29T00:51:58.816Z,52.36
2018-09-29T00:54:27.360Z,52.21
2018-09-29T00:56:55.926Z,52.33
2018-09-29T00:59:24.468Z,52.12
2018-09-29T01:01:53.022Z,52.07
2018-09-29T01:04:21.577Z,52.11
2018-09-29T01:06:50.137Z,51.54
2018-09-29T01:09:18.733Z,52.03
2018-09-29T01:11:47.289Z,52.26
2018-09-29T01:14:15.865Z,51.78
2018-09-29T01:16:44.404Z,52.18
2018-09-29T01:19:12.989Z,52.38
2018-09-29T01:21:41.524Z,52.12
2018-09-29T01:24:10.119Z,52.21
2018-09-29T01:26:38.708Z,52.61
2018-09-29T01:29:07.325Z,52.82
2018-09-29T01:31:35.858Z,53.13
2018-09-29T01:34:04.480Z,52.77
2018-09-29T01:36:33.017Z,53.17
2018-09-29T01:39:01.636Z,53.00
2018-09-29T01:41:30.183Z,53.57
2018-09-29T01:43:58.779Z,53.54
2018-09-29T01:46:27.323Z,53.56
2018-09-29T01:48:55.906Z,53.59
2018-09-29T01:51:24.459Z,53.46
2018-09-29T01:53:53.021Z,53.86
2018-09-29T01:56:21.553Z,54.06
2018-09-29T01:58:50.127Z,54.08
2018-09-29T02:01:18.718Z,54.29
2018-09-29T02:03:47.326Z,54.49
2018-09-29T02:06:15.878Z,54.19
2018-09-29T02:08:44.466Z,54.54
2018-09-29T02:11:13.045Z,54.77
2018-09-29T02:13:41.632Z,54.77
2018-09-29T02:16:10.209Z,55.27
2018-09-29T02:18:38.762Z,55.24
2018-09-29T02:21:07.592Z,55.41
2018-09-29T02:23:36.179Z,55.56
2018-09-29T02:26:04.732Z,55.92
2018-09-29T02:28:33.317Z,55.76
2018-09-29T02:31:01.864Z,55.90
2018-09-29T02:33:30.473Z,56.13
2018-09-29T02:35:59.042Z,55.99
2018-09-29T02:38:27.623Z,56.24
2018-09-29T02:40:56.454Z,56.17
2018-09-29T02:43:25.120Z,56.31
2018-09-29T02:45:53.715Z,56.34
2018-09-29T02:48:22.393Z,56.08
2018-09-29T02:50:51.031Z,56.27
2018-09-29T02:53:19.613Z,56.23
2018-09-29T02:55:48.163Z,55.96
2018-09-29T02:58:16.744Z,55.85
2018-09-29T03:00:45.325Z,56.29
2018-09-29T03:03:13.866Z,55.98
2018-09-29T03:05:42.464Z,55.95
2018-09-29T03:08:11.018Z,55.88
2018-09-29T03:10:39.613Z,56.18
2018-09-29T03:13:08.208Z,55.57
2018-09-29T03:15:36.806Z,55.31
2018-09-29T03:18:05.361Z,54.93
2018-09-29T03:20:33.941Z,54.89
2018-09-29T03:23:02.562Z,55.05
2018-09-29T03:25:31.176Z,54.79
2018-09-29T03:27:59.707Z,54.29
2018-09-29T03:30:28.277Z,54.04
2018-09-29T03:32:56.897Z,53.87
2018-09-29T03:35:25.480Z,53.53
2018-09-29T03:37:54.064Z,53.50
2018-09-29T03:40:22.653Z,53.57
2018-09-29T03:42:51.253Z,53.92
2018-09-29T03:45:19.837Z,53.82
2018-09-29T03:47:48.402Z,54.05
2018-09-29T03:50:16.997Z,54.16
2018-09-29T03:52:45.541Z,54.01
2018-09-29T03:55:14.120Z,54.00
2018-09-29T03:57:42.670Z,53.80
2018-09-29T04:00:11.261Z,53.74
2018-09-29T04:02:39.802Z,53.84
2018-09-29T04:05:08.429Z,53.63
2018-09-29T04:07:36.980Z,53.90
2018-09-29T04:10:05.614Z,53.55
2018-09-29T04:12:34.169Z,53.53
2018-09-29T04:15:02.741Z,53.68
2018-09-29T04:17:31.278Z,53.81
2018-09-29T04:19:59.896Z,53.85
2018-09-29T04:22:28.432Z,54.06
2018-09-29T04:24:56.992Z,54.14
2018-09-29T04:27:25.524Z,54.43
2018-09-29T04:29:54.107Z,55.05
2018-09-29T04:32:22.659Z,54.97
2018-09-29T04:34:51.272Z,55.08
2018-09-29T04:37:19.811Z,55.11
2018-09-29T04:39:48.416Z,55.22
2018-09-29T04:42:16.984Z,55.87
2018-09-29T04:44:45.537Z,55.30
2018-09-29T04:47:14.085Z,55.19
2018-09-29T04:49:42.617Z,55.45
2018-09-29T04:52:11.184Z,55.09
2018-09-29T04:54:39.737Z,54.89
2018-09-29T04:57:08.325Z,55.03
2018-09-29T04:59:36.861Z,55.60
2018-09-29T05:02:05.477Z,55.58
2018-09-29T05:04:34.069Z,55.60
2018-09-29T05:07:02.650Z,55.43
2018-09-29T05:09:31.213Z,55.56
2018-09-29T05:11:59.816Z,55.81
2018-09-29T05:14:28.361Z,55.82
2018-09-29T05:16:56.977Z,55.89
2018-09-29T05:19:25.567Z,55.77
2018-09-29T05:21:54.206Z,55.35
2018-09-29T05:24:22.750Z,55.46
2018-09-29T05:26:51.348Z,55.49
2018-09-29T05:29:19.942Z,54.93
2018-09-29T05:31:48.516Z,54.73
2018-09-29T05:34:17.060Z,54.78
2018-09-29T05:36:45.633Z,54.62
2018-09-29T05:39:14.196Z,53.90
2018-09-29T05:41:42.763Z,53.50
2018-09-29T05:44:11.312Z,53.30
2018-09-29T05:46:39.912Z,52.65
2018-09-29T05:49:08.477Z,52.63
2018-09-29T05:51:37.139Z,52.13
2018-09-29T05:54:05.682Z,52.14
2018-09-29T05:56:34.287Z,51.24
2018-09-29T05:59:02.892Z,50.60
2018-09-29T06:01:31.483Z,50.41
2018-09-29T06:03:59.996Z,49.69
2018-09-29T06:06:31.040Z,49.14
2018-09-29T06:09:00.832Z,48.78
2018-09-29T06:11:29.408Z,48.30
2018-09-29T06:13:58.297Z,47.71
2018-09-29T06:16:26.884Z,47.32
2018-09-29T06:18:55.425Z,46.89
2018-09-29T06:21:24.025Z,45.90
2018-09-29T06:23:53.915Z,44.83
2018-09-29T06:26:25.825Z,43.27
2018-09-29T06:28:54.393Z,40.25
2018-09-29T06:31:22.973Z,37.30
2018-09-29T06:33:51.550Z,35.26
2018-09-29T06:36:20.122Z,35.16
2018-09-29T06:38:48.714Z,33.53
2018-09-29T06:41:17.312Z,31.83
2018-09-29T06:43:45.873Z,30.03
2018-09-29T06:46:14.445Z,29.40
2018-09-29T06:48:43.017Z,29.66
2018-09-29T06:51:11.580Z,29.46
2018-09-29T06:53:40.150Z,27.79
2018-09-29T06:56:08.698Z,28.64
2018-09-29T06:58:37.266Z,30.29
2018-09-29T07:01:05.892Z,31.44
2018-09-29T07:03:34.497Z,31.33
2018-09-29T07:06:06.630Z,28.28
2018-09-29T07:08:35.470Z,27.74
2018-09-29T07:11:04.028Z,26.63
2018-09-29T07:13:32.592Z,24.76
2018-09-29T07:16:01.216Z,21.99
2018-09-29T07:18:29.779Z,19.56
2018-09-29T07:20:58.316Z,18.06
2018-09-29T07:23:26.888Z,16.29
2018-09-29T07:25:55.441Z,15.51
2018-09-29T07:28:24.012Z,14.63
2018-09-29T07:30:52.570Z,14.20
2018-09-29T07:33:21.230Z,13.48
2018-09-29T07:35:50.540Z,13.58
2018-09-29T07:38:19.395Z,12.22
2018-09-29T07:40:49.237Z,12.57
2018-09-29T07:43:18.535Z,12.69
2018-09-29T07:45:47.569Z,13.21
2018-09-29T07:48:16.208Z,12.82
2018-09-29T07:50:44.759Z,11.92
2018-09-29T07:53:13.345Z,11.46
2018-09-29T07:55:41.889Z,10.79
2018-09-29T07:58:10.415Z,9.95
2018-09-29T08:00:38.930Z,10.12
2018-09-29T08:03:07.591Z,10.30
2018-09-29T08:05:36.174Z,10.88
2018-09-29T08:08:04.813Z,10.57
2018-09-29T08:10:33.432Z,9.96
2018-09-29T08:13:02.089Z,12.07
2018-09-29T08:15:30.662Z,14.06
2018-09-29T08:17:59.229Z,12.86
2018-09-29T08:20:27.781Z,12.41
2018-09-29T08:22:56.359Z,11.94
2018-09-29T08:25:24.945Z,13.11
2018-09-29T08:27:53.557Z,13.43
2018-09-29T08:30:22.598Z,12.62
2018-09-29T08:32:51.200Z,12.72
2018-09-29T08:35:20.317Z,12.90
2018-09-29T08:37:48.914Z,13.62
2018-09-29T08:40:18.526Z,13.10
2018-09-29T08:42:54.825Z,13.55
2018-09-29T08:45:24.554Z,13.42
2018-09-29T08:47:53.198Z,16.00
2018-09-29T08:50:21.802Z,14.69
2018-09-29T08:52:50.410Z,12.56
2018-09-29T08:55:27.393Z,11.39
2018-09-29T08:57:55.981Z,11.94
2018-09-29T09:00:25.183Z,11.00
2018-09-29T09:02:54.683Z,10.74
2018-09-29T09:05:23.271Z,9.60
2018-09-29T09:07:54.980Z,8.56
2018-09-29T09:10:23.556Z,9.93
2018-09-29T09:12:52.961Z,11.49
2018-09-29T09:15:21.546Z,10.54
2018-09-29T09:17:50.092Z,8.64
2018-09-29T09:20:18.698Z,7.72
2018-09-29T09:22:47.402Z,8.94
2018-09-29T09:25:15.995Z,7.62
2018-09-29T09:27:44.716Z,8.32
2018-09-29T09:30:13.355Z,7.33
2018-09-29T09:32:41.919Z,6.85
2018-09-29T09:35:10.545Z,7.90
2018-09-29T09:37:39.132Z,10.50
2018-09-29T09:40:07.774Z,9.15
2018-09-29T09:42:36.356Z,8.35
2018-09-29T09:45:05.032Z,7.18
2018-09-29T09:47:33.591Z,6.94
2018-09-29T09:50:02.197Z,6.65
2018-09-29T09:52:30.782Z,6.14
2018-09-29T09:54:59.387Z,6.81
2018-09-29T09:57:30.954Z,6.40
2018-09-29T09:59:59.614Z,6.51
2018-09-29T10:02:33.280Z,6.58
2018-09-29T10:05:01.921Z,6.50
2018-09-29T10:07:30.480Z,5.82
2018-09-29T10:09:59.073Z,7.82
2018-09-29T10:12:27.639Z,7.59
2018-09-29T10:14:56.245Z,7.97
2018-09-29T10:17:24.847Z,7.96
2018-09-29T10:19:53.440Z,8.71
2018-09-29T10:22:22.379Z,10.15
2018-09-29T10:24:51.000Z,11.42
2018-09-29T10:27:19.575Z,11.35
2018-09-29T10:29:48.149Z,11.45
2018-09-29T10:32:16.731Z,10.85
2018-09-29T10:34:45.317Z,11.24
2018-09-29T10:37:13.861Z,10.10
2018-09-29T10:39:42.445Z,9.79
2018-09-29T10:42:11.011Z,9.37
2018-09-29T10:44:39.576Z,8.97
2018-09-29T10:47:08.258Z,8.61
2018-09-29T10:49:36.870Z,9.05
2018-09-29T10:52:05.487Z,9.27
2018-09-29T10:54:34.074Z,10.00
2018-09-29T10:57:02.670Z,9.75
2018-09-29T10:59:31.256Z,9.96
2018-09-29T11:02:00.392Z,9.33
2018-09-29T11:04:29.010Z,9.84
2018-09-29T11:06:57.624Z,10.13
2018-09-29T11:09:26.192Z,11.09
2018-09-29T11:11:54.798Z,10.56
2018-09-29T11:14:23.440Z,9.62
2018-09-29T11:16:52.339Z,10.20
2018-09-29T11:19:20.908Z,10.75
2018-09-29T11:21:49.507Z,10.95
2018-09-29T11:24:18.098Z,12.50
2018-09-29T11:26:46.707Z,13.42
2018-09-29T11:29:15.270Z,12.96
2018-09-29T11:31:43.877Z,12.85
2018-09-29T11:34:12.563Z,13.57
2018-09-29T11:36:41.580Z,13.44
2018-09-29T11:39:11.799Z,13.60
2018-09-29T11:41:40.904Z,13.70
2018-09-29T11:44:10.077Z,16.04
2018-09-29T11:46:38.693Z,15.69
2018-09-29T11:49:07.716Z,16.17
2018-09-29T11:51:36.473Z,16.59
2018-09-29T11:54:05.052Z,17.53
2018-09-29T11:56:33.926Z,18.32
2018-09-29T11:59:02.713Z,19.45
2018-09-29T12:01:31.369Z,20.13
2018-09-29T12:03:59.952Z,19.05
2018-09-29T12:06:28.573Z,18.62
2018-09-29T12:08:57.154Z,18.54
2018-09-29T12:11:25.748Z,19.36
2018-09-29T12:13:54.350Z,20.53
2018-09-29T12:16:22.986Z,19.99
2018-09-29T12:18:51.576Z,21.89
2018-09-29T12:21:20.181Z,20.65
2018-09-29T12:23:48.764Z,21.31
2018-09-29T12:26:17.359Z,22.59
2018-09-29T12:28:45.934Z,20.48
2018-09-29T12:31:14.541Z,20.90
2018-09-29T12:33:43.104Z,19.77
2018-09-29T12:36:11.686Z,17.82
2018-09-29T12:38:40.335Z,18.18
2018-09-29T12:41:08.895Z,18.67
2018-09-29T12:43:37.614Z,19.28
2018-09-29T12:46:06.192Z,20.49
2018-09-29T12:48:34.807Z,20.08
2018-09-29T12:51:03.405Z,20.66
2018-09-29T12:53:32.015Z,19.89
2018-09-29T12:56:00.602Z,20.29
2018-09-29T12:58:29.212Z,19.01
2018-09-29T13:00:57.795Z,18.26
2018-09-29T13:03:26.427Z,17.14
2018-09-29T13:05:55.045Z,18.83
2018-09-29T13:08:23.705Z,17.98
2018-09-29T13:10:52.266Z,17.49
2018-09-29T13:13:20.869Z,17.58
2018-09-29T13:15:50.162Z,16.81
2018-09-29T13:18:18.758Z,15.95
2018-09-29T13:20:47.377Z,15.12
2018-09-29T13:23:15.974Z,16.70
2018-09-29T13:25:44.579Z,18.79
2018-09-29T13:28:13.448Z,18.95
2018-09-29T13:30:42.006Z,19.78
2018-09-29T13:33:10.913Z,18.31
2018-09-29T13:35:39.911Z,17.75
2018-09-29T13:38:08.548Z,18.94
2018-09-29T13:40:37.116Z,19.33
2018-09-29T13:43:05.753Z,19.13
2018-09-29T13:45:34.392Z,18.71
2018-09-29T13:48:02.993Z,19.01
2018-09-29T13:50:31.590Z,18.55
2018-09-29T13:53:00.185Z,17.46
2018-09-29T13:55:28.768Z,18.54
2018-09-29T13:57:57.376Z,18.66
2018-09-29T14:00:25.953Z,17.87
2018-09-29T14:02:54.545Z,18.86
2018-09-29T14:05:23.112Z,20.81
2018-09-29T14:07:51.697Z,20.60
2018-09-29T14:10:20.325Z,20.64
2018-09-29T14:12:48.881Z,20.10
2018-09-29T14:15:18.865Z,20.83
2018-09-29T14:17:47.537Z,20.57
2018-09-29T14:20:16.133Z,21.83
2018-09-29T14:22:44.705Z,21.00
2018-09-29T14:25:13.308Z,21.59
2018-09-29T14:27:41.898Z,21.61
2018-09-29T14:30:10.803Z,21.20
2018-09-29T14:32:39.988Z,20.25
2018-09-29T14:35:08.604Z,21.01
2018-09-29T14:37:37.140Z,21.40
2018-09-29T14:40:05.835Z,23.08
2018-09-29T14:42:34.389Z,23.57
2018-09-29T14:45:03.075Z,24.25
2018-09-29T14:47:31.957Z,24.43
2018-09-29T14:50:00.551Z,25.22
2018-09-29T14:52:31.207Z,23.13
2018-09-29T14:55:03.589Z,24.68
2018-09-29T14:57:40.983Z,25.84
2018-09-29T15:00:09.566Z,26.22
2018-09-29T15:02:38.120Z,25.87
2018-09-29T15:05:06.808Z,27.74
2018-09-29T15:07:35.397Z,24.97
2018-09-29T15:10:04.226Z,24.67
2018-09-29T15:12:32.823Z,24.41
2018-09-29T15:15:01.405Z,22.82
2018-09-29T15:17:29.971Z,22.70
2018-09-29T15:19:58.592Z,22.62
2018-09-29T15:22:27.170Z,22.58
2018-09-29T15:24:55.761Z,23.42
2018-09-29T15:27:24.323Z,22.23
2018-09-29T15:29:52.916Z,23.80
2018-09-29T15:32:21.541Z,22.05
2018-09-29T15:34:50.175Z,21.99
2018-09-29T15:37:18.793Z,21.77
2018-09-29T15:39:47.437Z,23.14
2018-09-29T15:42:16.009Z,22.36
2018-09-29T15:44:44.650Z,21.08
2018-09-29T15:47:13.216Z,21.61
2018-09-29T15:49:42.317Z,21.02
2018-09-29T15:52:10.904Z,21.34
2018-09-29T15:54:39.501Z,21.45
2018-09-29T15:57:08.160Z,21.67
2018-09-29T15:59:36.746Z,21.72
2018-09-29T16:02:05.395Z,21.18
2018-09-29T16:04:33.983Z,21.66
2018-09-29T16:07:02.796Z,21.93
2018-09-29T16:09:31.404Z,21.89
2018-09-29T16:11:59.976Z,21.62
2018-09-29T16:14:28.529Z,22.14
2018-09-29T16:16:57.433Z,22.41
2018-09-29T16:19:26.377Z,23.14
2018-09-29T16:21:54.972Z,24.20
2018-09-29T16:24:23.525Z,23.90
2018-09-29T16:26:52.151Z,25.49
2018-09-29T16:29:20.744Z,25.87
2018-09-29T16:31:49.373Z,26.73
2018-09-29T16:34:17.950Z,26.74
2018-09-29T16:36:46.545Z,27.30
2018-09-29T16:39:15.123Z,28.38
2018-09-29T16:41:43.945Z,28.74
2018-09-29T16:44:12.533Z,29.57
2018-09-29T16:46:41.130Z,30.49
2018-09-29T16:49:09.729Z,30.08
2018-09-29T16:51:38.429Z,31.48
2018-09-29T16:54:07.010Z,31.64
2018-09-29T16:56:35.886Z,32.54
2018-09-29T16:59:04.517Z,33.21
2018-09-29T17:01:33.101Z,33.67
2018-09-29T17:04:01.787Z,34.68
2018-09-29T17:06:30.321Z,34.63
2018-09-29T17:08:58.909Z,34.91
2018-09-29T17:11:31.245Z,35.59
2018-09-29T17:13:59.857Z,35.88
2018-09-29T17:16:28.476Z,35.87
2018-09-29T17:18:57.023Z,36.56
2018-09-29T17:21:26.083Z,37.29
2018-09-29T17:23:54.648Z,37.79
2018-09-29T17:26:23.587Z,38.10
2018-09-29T17:28:52.174Z,38.57
2018-09-29T17:31:20.864Z,38.30
2018-09-29T17:33:49.464Z,38.82
2018-09-29T17:36:18.086Z,39.12
2018-09-29T17:38:46.658Z,39.41
2018-09-29T17:41:15.625Z,39.59
2018-09-29T17:43:44.546Z,39.37
2018-09-29T17:46:13.166Z,39.72
2018-09-29T17:48:42.178Z,39.99
2018-09-29T17:51:11.120Z,41.02
2018-09-29T17:53:39.970Z,41.15
2018-09-29T17:56:08.645Z,40.82
2018-09-29T17:58:37.220Z,41.17
2018-09-29T18:01:05.917Z,41.75
2018-09-29T18:03:34.490Z,42.04
2018-09-29T18:06:03.365Z,42.25
2018-09-29T18:08:31.958Z,42.63
2018-09-29T18:11:00.980Z,43.08
2018-09-29T18:13:30.897Z,43.17
2018-09-29T18:15:59.457Z,43.46
2018-09-29T18:18:28.084Z,43.87
2018-09-29T18:20:56.673Z,44.39
2018-09-29T18:23:25.338Z,44.75
2018-09-29T18:25:54.152Z,45.11
2018-09-29T18:28:22.792Z,45.61
2018-09-29T18:30:51.368Z,45.76
2018-09-29T18:40:21.923Z,47.27
2018-09-29T18:42:50.538Z,47.23
2018-09-29T18:45:19.462Z,47.38
2018-09-29T18:47:48.145Z,48.10
2018-09-29T18:50:16.808Z,48.39
2018-09-29T18:52:45.449Z,48.37
2018-09-29T18:55:14.532Z,48.81
2018-09-29T18:57:49.737Z,49.23
2018-09-29T19:00:18.329Z,49.56
2018-09-29T19:02:47.823Z,49.76
2018-09-29T19:05:16.866Z,49.71
2018-09-29T19:07:45.842Z,50.24
2018-09-29T19:10:14.744Z,49.39
2018-09-29T19:12:43.522Z,50.10
2018-09-29T19:15:12.097Z,50.73
2018-09-29T19:17:40.703Z,50.90
2018-09-29T19:20:09.440Z,51.74
2018-09-29T19:22:41.836Z,52.58
2018-09-29T19:25:10.456Z,53.10
2018-09-29T19:27:39.097Z,53.44
2018-09-29T19:30:07.813Z,53.68
2018-09-29T19:32:36.717Z,53.49
2018-09-29T19:35:05.474Z,53.74
2018-09-29T19:37:34.092Z,53.24
2018-09-29T19:40:02.687Z,53.29
2018-09-29T19:42:31.323Z,53.59
2018-09-29T19:44:59.885Z,53.42
2018-09-29T19:47:28.477Z,53.94
2018-09-29T19:49:57.029Z,54.79
2018-09-29T19:52:25.624Z,55.21
2018-09-29T19:54:54.177Z,55.50
2018-09-29T19:57:22.736Z,55.66
2018-09-29T19:59:51.332Z,55.31
2018-09-29T20:02:19.928Z,55.84
2018-09-29T20:04:48.539Z,56.30
2018-09-29T20:07:17.072Z,56.57
2018-09-29T20:09:45.652Z,56.94
2018-09-29T20:12:14.184Z,57.09
2018-09-29T20:14:42.752Z,56.58
2018-09-29T20:17:11.299Z,56.15
2018-09-29T20:19:39.979Z,55.51
2018-09-29T20:22:09.650Z,55.73
2018-09-29T20:24:38.478Z,55.43
2018-09-29T20:27:07.574Z,56.17
2018-09-29T20:29:36.153Z,55.88
2018-09-29T20:32:04.705Z,55.86
2018-09-29T20:34:33.274Z,56.08
2018-09-29T20:37:01.857Z,56.17
2018-09-29T20:39:30.459Z,55.75
2018-09-29T20:41:59.017Z,55.43
2018-09-29T20:44:27.612Z,56.85
2018-09-29T20:46:56.186Z,56.55
2018-09-29T20:49:24.780Z,56.70
2018-09-29T20:51:53.330Z,57.89
2018-09-29T20:54:21.950Z,57.98
2018-09-29T20:56:50.530Z,58.20
2018-09-29T20:59:19.136Z,59.14
2018-09-29T21:01:48.046Z,59.69
2018-09-29T21:04:16.626Z,60.48
2018-09-29T21:06:45.209Z,61.26
2018-09-29T21:09:13.854Z,61.98
2018-09-29T21:11:42.424Z,61.23
2018-09-29T21:14:11.013Z,61.34
2018-09-29T21:16:39.613Z,60.63
2018-09-29T21:19:08.225Z,60.28
2018-09-29T21:21:36.780Z,59.83
2018-09-29T21:24:05.730Z,60.00
2018-09-29T21:26:34.295Z,60.04
2018-09-29T21:29:02.904Z,60.53
2018-09-29T21:31:31.645Z,60.96
2018-09-29T21:34:00.221Z,60.21
2018-09-29T21:36:28.847Z,61.03
2018-09-29T21:38:57.444Z,61.12
2018-09-29T21:41:26.029Z,61.39
2018-09-29T21:43:54.608Z,61.37
2018-09-29T21:46:23.186Z,62.27
2018-09-29T21:48:51.806Z,62.39
2018-09-29T21:51:20.359Z,62.34
2018-09-29T21:53:48.921Z,62.34
2018-09-29T21:56:17.539Z,62.56
2018-09-29T21:58:46.089Z,62.31
2018-09-29T22:01:19.768Z,62.25
2018-09-29T22:03:48.372Z,62.15
2018-09-29T22:06:17.022Z,62.49
2018-09-29T22:08:45.579Z,62.47
2018-09-29T22:11:14.227Z,62.61
2018-09-29T22:13:42.813Z,62.19
2018-09-29T22:16:11.425Z,62.71
2018-09-29T22:18:40.010Z,62.69
2018-09-29T22:21:08.680Z,63.08
2018-09-29T22:23:37.176Z,63.13
2018-09-29T22:26:05.790Z,63.85
2018-09-29T22:28:34.346Z,64.27
2018-09-29T22:31:02.945Z,64.67
2018-09-29T22:33:31.497Z,64.87
2018-09-29T22:36:00.107Z,64.90
2018-09-29T22:38:28.781Z,65.43
2018-09-29T22:40:57.405Z,65.70
2018-09-29T22:43:25.965Z,66.18
2018-09-29T22:45:54.560Z,65.66
2018-09-29T22:48:23.137Z,66.02
2018-09-29T22:50:51.739Z,65.29
2018-09-29T22:53:20.600Z,65.55
2018-09-29T22:55:49.225Z,65.62
2018-09-29T22:58:17.765Z,65.67
2018-09-29T23:00:46.372Z,65.90
2018-09-29T23:03:14.932Z,66.71
2018-09-29T23:05:48.274Z,66.84
2018-09-29T23:08:16.836Z,67.02
2018-09-29T23:10:45.425Z,67.71
2018-09-29T23:13:13.968Z,67.57
2018-09-29T23:15:42.589Z,67.79
2018-09-29T23:18:11.180Z,66.86
2018-09-29T23:20:39.804Z,66.46
2018-09-29T23:23:08.384Z,66.34
2018-09-29T23:25:36.994Z,66.57
2018-09-29T23:28:05.639Z,67.07
2018-09-29T23:30:34.277Z,67.21
2018-09-29T23:33:03.108Z,67.31
2018-09-29T23:35:34.481Z,67.79
2018-09-29T23:38:03.111Z,67.71
2018-09-29T23:40:31.746Z,67.12
2018-09-29T23:43:00.316Z,66.23
2018-09-29T23:45:29.933Z,65.71
2018-09-29T23:47:58.553Z,65.55
2018-09-29T23:50:27.126Z,65.18
2018-09-29T23:52:56.365Z,65.25
2018-09-29T23:55:24.943Z,65.45
2018-09-29T23:57:53.519Z,65.44
